SBNT/NAT METAR and TAF weather

Enter ICAO airport designator
Station Type Date Time Source
SBNT METAR 2022/11/30 11:00 UTC NOAA

SBNT 301100Z 08010KT 9999 BKN025 27/20 Q1010


Station Type Date Time Source
SBNT Decoded METAR 2022/11/30 11:00 UTC NOAA

Natal Aeroporto, Brazil (SBNT) 05-55S 035-15W 49M
Nov 30, 2022 - 06:00 AM EST / 2022.11.30 1100 UTC
Wind: from the E (080 degrees) at 12 MPH (10 KT):0
Visibility: greater than 7 mile(s):0
Sky conditions: mostly cloudy
Temperature: 80 F (27 C)
Dew Point: 68 F (20 C)
Relative Humidity: 65%
Pressure (altimeter): 29.83 in. Hg (1010 hPa)
ob: SBNT 301100Z 08010KT 9999 BKN025 27/20 Q1010
cycle: 11

Station Type Date Time Source
SBNT TAF 2022/11/30 12:03 UTC NOAA

TAF TAF SBNT 300807Z 3012/3024 09010KT 9999 SCT023 TX30/3016Z TN26/3024Z
RMK PHI

Example: see airport list